الصفحة الرئيسية
METAR-TAF:

METAR-TAF

مطار :

Miyako-jima, اليابان

دائرة عرض: 24-47N, خط طول: 125-17E, ارتفاع: 40 متر

مراقبة الطقس الحالي

تاريخ ووقت الإصدار 25 دقيقة قبل الساعة 22:00UTC
ريح 13 عقدة من الجنوب/الجنوب الغربي تتزايد حتى 26 عقدة
درجة الحرارة 27°درجة مئوية
الرطوبة 94%
ضغط 1009 hPa
الرؤية: 1200 متر
غيوم قليلة على ارتفاع 500 قدم
غيوم متفرقة على ارتفاع 1000 قدم
غيوم مفككة على ارتفاع 1400 قدم
مطر غزير, غشاء,

METAR: ROMY 172200Z AUTO 20013G26KT 1200 R22/1100VP2000D +RA BR FEW005 SCT010 BKN014 //////TCU 27/26 Q1009

زمن: 07:25 (22:25 UTC)


TAF: مفقودة

أرصاد الطقس والتوقعات من أكثر من 4000 مطار (تقارير الطقس للمطار METAR والتنبؤ بالطقس بالمطارTAF).

المحطات المتاحة هي النقط الصفراء والحمراء على الخريطة.

حرك المؤشر فوق النقطة لمعرفة اسم المحطة.

ثم انقر لمعرفة أرصاد وتوقعات الطقس.

لتغيير الخارطة: اضغط على الأزرار الخضراء مع رمز الصليب الأسود للتكبير. على الزر الأخضر مع شرطة للتصغير، أو على الأسهم الخضراء للخرائط المجاورة.


METAR-TAF: